sensor_id;sensor_type;location;lat;lon;timestamp;P1;durP1;ratioP1;P2;durP2;ratioP2
78402;SDS011;67687;43.508;1.504;2023-10-09T00:02:05;6.63;;;3.13;;
78402;SDS011;67687;43.508;1.504;2023-10-09T00:04:33;7.13;;;3.40;;
78402;SDS011;67687;43.508;1.504;2023-10-09T00:07:02;6.70;;;3.20;;
78402;SDS011;67687;43.508;1.504;2023-10-09T00:09:32;7.80;;;3.40;;
78402;SDS011;67687;43.508;1.504;2023-10-09T00:12:11;7.10;;;3.50;;
78402;SDS011;67687;43.508;1.504;2023-10-09T00:14:42;6.97;;;3.10;;
78402;SDS011;67687;43.508;1.504;2023-10-09T00:17:14;6.15;;;2.85;;
78402;SDS011;67687;43.508;1.504;2023-10-09T00:19:44;6.30;;;3.22;;
78402;SDS011;67687;43.508;1.504;2023-10-09T00:22:15;7.22;;;3.10;;
78402;SDS011;67687;43.508;1.504;2023-10-09T00:24:55;6.73;;;3.10;;
78402;SDS011;67687;43.508;1.504;2023-10-09T00:27:40;8.70;;;3.58;;
78402;SDS011;67687;43.508;1.504;2023-10-09T00:30:13;6.60;;;3.00;;
78402;SDS011;67687;43.508;1.504;2023-10-09T00:32:42;6.63;;;3.10;;
78402;SDS011;67687;43.508;1.504;2023-10-09T00:35:16;7.10;;;3.20;;
78402;SDS011;67687;43.508;1.504;2023-10-09T00:38:03;7.30;;;3.30;;
78402;SDS011;67687;43.508;1.504;2023-10-09T00:40:33;8.20;;;3.50;;
78402;SDS011;67687;43.508;1.504;2023-10-09T00:43:10;7.22;;;3.47;;
78402;SDS011;67687;43.508;1.504;2023-10-09T00:45:40;7.13;;;3.40;;
78402;SDS011;67687;43.508;1.504;2023-10-09T00:48:10;9.57;;;3.30;;
78402;SDS011;67687;43.508;1.504;2023-10-09T00:50:39;6.80;;;3.10;;
78402;SDS011;67687;43.508;1.504;2023-10-09T00:53:17;6.82;;;3.22;;
78402;SDS011;67687;43.508;1.504;2023-10-09T00:55:45;7.53;;;3.67;;
78402;SDS011;67687;43.508;1.504;2023-10-09T00:58:20;7.03;;;3.42;;
78402;SDS011;67687;43.508;1.504;2023-10-09T01:00:50;9.38;;;3.30;;
78402;SDS011;67687;43.508;1.504;2023-10-09T01:03:19;9.10;;;3.67;;
78402;SDS011;67687;43.508;1.504;2023-10-09T01:05:47;8.13;;;3.70;;
78402;SDS011;67687;43.508;1.504;2023-10-09T01:08:22;6.13;;;2.95;;
78402;SDS011;67687;43.508;1.504;2023-10-09T01:10:55;6.57;;;2.92;;
78402;SDS011;67687;43.508;1.504;2023-10-09T01:13:23;7.97;;;3.38;;
78402;SDS011;67687;43.508;1.504;2023-10-09T01:16:05;6.77;;;3.70;;
78402;SDS011;67687;43.508;1.504;2023-10-09T01:18:38;6.82;;;3.38;;
78402;SDS011;67687;43.508;1.504;2023-10-09T01:21:09;7.00;;;3.10;;
78402;SDS011;67687;43.508;1.504;2023-10-09T01:23:41;6.97;;;3.50;;
78402;SDS011;67687;43.508;1.504;2023-10-09T01:26:23;6.45;;;3.33;;
78402;SDS011;67687;43.508;1.504;2023-10-09T01:28:50;6.17;;;3.10;;
78402;SDS011;67687;43.508;1.504;2023-10-09T01:31:21;7.32;;;3.67;;
78402;SDS011;67687;43.508;1.504;2023-10-09T01:33:47;7.65;;;3.42;;
78402;SDS011;67687;43.508;1.504;2023-10-09T01:36:14;7.82;;;3.42;;
78402;SDS011;67687;43.508;1.504;2023-10-09T01:38:44;7.85;;;3.38;;
78402;SDS011;67687;43.508;1.504;2023-10-09T01:41:12;6.97;;;3.70;;
78402;SDS011;67687;43.508;1.504;2023-10-09T01:43:45;6.97;;;3.22;;
78402;SDS011;67687;43.508;1.504;2023-10-09T01:46:15;7.00;;;3.00;;
78402;SDS011;67687;43.508;1.504;2023-10-09T01:48:44;6.53;;;3.30;;
78402;SDS011;67687;43.508;1.504;2023-10-09T01:51:13;6.07;;;3.33;;
78402;SDS011;67687;43.508;1.504;2023-10-09T01:53:42;7.23;;;3.00;;
78402;SDS011;67687;43.508;1.504;2023-10-09T01:56:11;6.63;;;2.97;;
78402;SDS011;67687;43.508;1.504;2023-10-09T01:58:40;6.70;;;3.40;;
78402;SDS011;67687;43.508;1.504;2023-10-09T02:01:10;7.38;;;3.40;;
78402;SDS011;67687;43.508;1.504;2023-10-09T02:03:37;6.78;;;3.80;;
78402;SDS011;67687;43.508;1.504;2023-10-09T02:06:07;9.47;;;3.47;;
78402;SDS011;67687;43.508;1.504;2023-10-09T02:08:49;7.05;;;3.70;;
78402;SDS011;67687;43.508;1.504;2023-10-09T02:11:18;9.07;;;4.00;;
78402;SDS011;67687;43.508;1.504;2023-10-09T02:13:49;8.50;;;3.92;;
78402;SDS011;67687;43.508;1.504;2023-10-09T02:16:27;9.30;;;4.13;;
78402;SDS011;67687;43.508;1.504;2023-10-09T02:18:54;9.43;;;4.10;;
78402;SDS011;67687;43.508;1.504;2023-10-09T02:21:24;8.80;;;4.13;;
78402;SDS011;67687;43.508;1.504;2023-10-09T02:23:59;9.30;;;3.78;;
78402;SDS011;67687;43.508;1.504;2023-10-09T02:26:31;8.68;;;3.60;;
78402;SDS011;67687;43.508;1.504;2023-10-09T02:29:19;7.57;;;3.50;;
78402;SDS011;67687;43.508;1.504;2023-10-09T02:31:49;7.47;;;3.67;;
78402;SDS011;67687;43.508;1.504;2023-10-09T02:34:18;7.93;;;3.90;;
78402;SDS011;67687;43.508;1.504;2023-10-09T02:36:47;7.05;;;3.45;;
78402;SDS011;67687;43.508;1.504;2023-10-09T02:39:22;7.43;;;3.55;;
78402;SDS011;67687;43.508;1.504;2023-10-09T02:41:51;7.88;;;3.45;;
78402;SDS011;67687;43.508;1.504;2023-10-09T02:44:25;7.00;;;3.60;;
78402;SDS011;67687;43.508;1.504;2023-10-09T02:46:54;6.82;;;3.45;;
78402;SDS011;67687;43.508;1.504;2023-10-09T02:49:22;8.70;;;3.65;;
78402;SDS011;67687;43.508;1.504;2023-10-09T02:51:50;7.07;;;3.60;;
78402;SDS011;67687;43.508;1.504;2023-10-09T02:54:18;6.65;;;3.53;;
78402;SDS011;67687;43.508;1.504;2023-10-09T02:56:54;8.10;;;3.47;;
78402;SDS011;67687;43.508;1.504;2023-10-09T02:59:30;7.93;;;3.33;;
78402;SDS011;67687;43.508;1.504;2023-10-09T03:01:57;8.52;;;3.80;;
78402;SDS011;67687;43.508;1.504;2023-10-09T03:04:24;7.70;;;3.65;;
78402;SDS011;67687;43.508;1.504;2023-10-09T03:06:56;6.47;;;3.28;;
78402;SDS011;67687;43.508;1.504;2023-10-09T03:09:24;7.20;;;3.30;;
78402;SDS011;67687;43.508;1.504;2023-10-09T03:11:58;7.30;;;3.40;;
78402;SDS011;67687;43.508;1.504;2023-10-09T03:14:28;7.53;;;3.70;;
78402;SDS011;67687;43.508;1.504;2023-10-09T03:16:55;8.05;;;3.60;;
78402;SDS011;67687;43.508;1.504;2023-10-09T03:19:22;7.25;;;3.33;;
78402;SDS011;67687;43.508;1.504;2023-10-09T03:21:50;7.63;;;3.33;;
78402;SDS011;67687;43.508;1.504;2023-10-09T03:24:17;9.82;;;3.53;;
78402;SDS011;67687;43.508;1.504;2023-10-09T03:26:45;8.23;;;3.20;;
78402;SDS011;67687;43.508;1.504;2023-10-09T03:29:13;7.78;;;3.53;;
78402;SDS011;67687;43.508;1.504;2023-10-09T03:31:40;9.77;;;4.18;;
78402;SDS011;67687;43.508;1.504;2023-10-09T03:34:08;7.57;;;3.70;;
78402;SDS011;67687;43.508;1.504;2023-10-09T03:36:36;7.95;;;3.60;;
78402;SDS011;67687;43.508;1.504;2023-10-09T03:39:04;9.27;;;4.00;;
78402;SDS011;67687;43.508;1.504;2023-10-09T03:41:43;7.53;;;3.83;;
78402;SDS011;67687;43.508;1.504;2023-10-09T03:44:13;7.03;;;3.50;;
78402;SDS011;67687;43.508;1.504;2023-10-09T03:46:43;8.67;;;3.97;;
78402;SDS011;67687;43.508;1.504;2023-10-09T03:49:10;7.38;;;3.75;;
78402;SDS011;67687;43.508;1.504;2023-10-09T03:51:38;8.00;;;3.72;;
78402;SDS011;67687;43.508;1.504;2023-10-09T03:54:07;8.45;;;3.60;;
78402;SDS011;67687;43.508;1.504;2023-10-09T03:56:34;7.38;;;3.78;;
78402;SDS011;67687;43.508;1.504;2023-10-09T03:59:01;7.80;;;3.40;;
78402;SDS011;67687;43.508;1.504;2023-10-09T04:01:31;7.75;;;3.72;;
78402;SDS011;67687;43.508;1.504;2023-10-09T04:04:03;11.10;;;4.10;;
78402;SDS011;67687;43.508;1.504;2023-10-09T04:06:32;8.65;;;3.97;;
78402;SDS011;67687;43.508;1.504;2023-10-09T04:08:59;10.15;;;4.28;;
78402;SDS011;67687;43.508;1.504;2023-10-09T04:11:39;8.40;;;4.10;;
78402;SDS011;67687;43.508;1.504;2023-10-09T04:14:08;9.27;;;4.28;;
78402;SDS011;67687;43.508;1.504;2023-10-09T04:16:50;8.88;;;4.13;;
78402;SDS011;67687;43.508;1.504;2023-10-09T04:19:17;8.73;;;4.10;;
78402;SDS011;67687;43.508;1.504;2023-10-09T04:21:47;9.10;;;3.75;;
78402;SDS011;67687;43.508;1.504;2023-10-09T04:24:13;9.50;;;4.40;;
78402;SDS011;67687;43.508;1.504;2023-10-09T04:26:49;7.60;;;3.90;;
78402;SDS011;67687;43.508;1.504;2023-10-09T04:29:21;9.15;;;4.07;;
78402;SDS011;67687;43.508;1.504;2023-10-09T04:32:18;9.73;;;4.20;;
78402;SDS011;67687;43.508;1.504;2023-10-09T04:34:44;9.38;;;4.20;;
78402;SDS011;67687;43.508;1.504;2023-10-09T04:37:15;9.25;;;4.18;;
78402;SDS011;67687;43.508;1.504;2023-10-09T04:39:49;8.73;;;4.50;;
78402;SDS011;67687;43.508;1.504;2023-10-09T04:42:36;9.60;;;4.53;;
78402;SDS011;67687;43.508;1.504;2023-10-09T04:45:02;9.10;;;4.05;;
78402;SDS011;67687;43.508;1.504;2023-10-09T04:48:02;10.50;;;4.60;;
78402;SDS011;67687;43.508;1.504;2023-10-09T04:50:34;9.77;;;4.20;;
78402;SDS011;67687;43.508;1.504;2023-10-09T04:53:23;9.55;;;4.40;;
78402;SDS011;67687;43.508;1.504;2023-10-09T04:55:50;8.90;;;4.10;;
78402;SDS011;67687;43.508;1.504;2023-10-09T04:58:22;9.15;;;4.28;;
78402;SDS011;67687;43.508;1.504;2023-10-09T05:00:52;10.87;;;4.50;;
78402;SDS011;67687;43.508;1.504;2023-10-09T05:03:40;7.40;;;3.97;;
78402;SDS011;67687;43.508;1.504;2023-10-09T05:06:09;8.20;;;4.25;;
78402;SDS011;67687;43.508;1.504;2023-10-09T05:09:08;7.53;;;3.67;;
78402;SDS011;67687;43.508;1.504;2023-10-09T05:11:34;7.47;;;3.63;;
78402;SDS011;67687;43.508;1.504;2023-10-09T05:14:18;9.93;;;4.57;;
78402;SDS011;67687;43.508;1.504;2023-10-09T05:16:51;10.10;;;4.45;;
78402;SDS011;67687;43.508;1.504;2023-10-09T05:19:22;8.45;;;4.32;;
78402;SDS011;67687;43.508;1.504;2023-10-09T05:22:19;9.55;;;3.83;;
78402;SDS011;67687;43.508;1.504;2023-10-09T05:25:00;8.73;;;4.40;;
78402;SDS011;67687;43.508;1.504;2023-10-09T05:27:26;11.17;;;4.67;;
78402;SDS011;67687;43.508;1.504;2023-10-09T05:30:07;11.07;;;4.80;;
78402;SDS011;67687;43.508;1.504;2023-10-09T05:32:49;10.88;;;4.60;;
78402;SDS011;67687;43.508;1.504;2023-10-09T05:35:21;9.40;;;4.28;;
78402;SDS011;67687;43.508;1.504;2023-10-09T05:37:55;10.27;;;4.63;;
78402;SDS011;67687;43.508;1.504;2023-10-09T05:40:26;9.73;;;4.43;;
78402;SDS011;67687;43.508;1.504;2023-10-09T05:42:56;10.85;;;4.80;;
78402;SDS011;67687;43.508;1.504;2023-10-09T05:45:25;9.05;;;4.30;;
78402;SDS011;67687;43.508;1.504;2023-10-09T05:48:09;8.75;;;4.32;;
78402;SDS011;67687;43.508;1.504;2023-10-09T05:50:51;10.18;;;3.90;;
78402;SDS011;67687;43.508;1.504;2023-10-09T05:53:35;10.23;;;4.30;;
78402;SDS011;67687;43.508;1.504;2023-10-09T05:56:35;8.68;;;4.63;;
78402;SDS011;67687;43.508;1.504;2023-10-09T05:59:27;9.88;;;4.82;;
78402;SDS011;67687;43.508;1.504;2023-10-09T06:02:13;9.23;;;4.40;;
78402;SDS011;67687;43.508;1.504;2023-10-09T06:04:57;9.32;;;4.57;;
78402;SDS011;67687;43.508;1.504;2023-10-09T06:07:31;10.47;;;4.57;;
78402;SDS011;67687;43.508;1.504;2023-10-09T06:10:27;10.25;;;4.47;;
78402;SDS011;67687;43.508;1.504;2023-10-09T06:13:04;8.90;;;4.70;;
78402;SDS011;67687;43.508;1.504;2023-10-09T06:15:36;8.50;;;4.38;;
78402;SDS011;67687;43.508;1.504;2023-10-09T06:18:16;10.15;;;4.78;;
78402;SDS011;67687;43.508;1.504;2023-10-09T06:20:57;7.77;;;4.23;;
78402;SDS011;67687;43.508;1.504;2023-10-09T06:23:35;9.50;;;4.53;;
78402;SDS011;67687;43.508;1.504;2023-10-09T06:26:34;9.75;;;4.80;;
78402;SDS011;67687;43.508;1.504;2023-10-09T06:29:01;9.35;;;4.40;;
78402;SDS011;67687;43.508;1.504;2023-10-09T06:31:58;9.20;;;4.60;;
78402;SDS011;67687;43.508;1.504;2023-10-09T06:34:30;11.97;;;4.70;;
78402;SDS011;67687;43.508;1.504;2023-10-09T06:37:00;9.88;;;4.72;;
78402;SDS011;67687;43.508;1.504;2023-10-09T06:39:35;10.27;;;4.95;;
78402;SDS011;67687;43.508;1.504;2023-10-09T06:42:36;10.70;;;4.50;;
78402;SDS011;67687;43.508;1.504;2023-10-09T06:45:10;9.40;;;4.55;;
78402;SDS011;67687;43.508;1.504;2023-10-09T06:47:40;10.17;;;4.30;;
78402;SDS011;67687;43.508;1.504;2023-10-09T06:50:07;9.65;;;4.50;;
78402;SDS011;67687;43.508;1.504;2023-10-09T06:52:50;8.95;;;4.38;;
78402;SDS011;67687;43.508;1.504;2023-10-09T06:55:40;8.40;;;4.38;;
78402;SDS011;67687;43.508;1.504;2023-10-09T06:58:15;10.25;;;4.43;;
78402;SDS011;67687;43.508;1.504;2023-10-09T07:00:47;8.30;;;3.90;;
78402;SDS011;67687;43.508;1.504;2023-10-09T07:03:36;8.88;;;3.88;;
78402;SDS011;67687;43.508;1.504;2023-10-09T07:06:17;9.63;;;4.35;;
78402;SDS011;67687;43.508;1.504;2023-10-09T07:08:48;8.98;;;3.90;;
78402;SDS011;67687;43.508;1.504;2023-10-09T07:11:37;10.60;;;4.40;;
78402;SDS011;67687;43.508;1.504;2023-10-09T07:14:22;8.30;;;4.20;;
78402;SDS011;67687;43.508;1.504;2023-10-09T07:17:18;8.70;;;4.50;;
78402;SDS011;67687;43.508;1.504;2023-10-09T07:19:47;7.53;;;4.32;;
78402;SDS011;67687;43.508;1.504;2023-10-09T07:22:35;8.52;;;4.10;;
78402;SDS011;67687;43.508;1.504;2023-10-09T07:25:17;8.48;;;4.20;;
78402;SDS011;67687;43.508;1.504;2023-10-09T07:27:54;8.93;;;4.23;;
78402;SDS011;67687;43.508;1.504;2023-10-09T07:30:21;10.05;;;4.60;;
78402;SDS011;67687;43.508;1.504;2023-10-09T07:33:03;10.02;;;4.55;;
78402;SDS011;67687;43.508;1.504;2023-10-09T07:35:42;9.32;;;4.50;;
78402;SDS011;67687;43.508;1.504;2023-10-09T07:38:14;9.70;;;4.10;;
78402;SDS011;67687;43.508;1.504;2023-10-09T07:40:44;8.83;;;4.17;;
78402;SDS011;67687;43.508;1.504;2023-10-09T07:43:22;9.10;;;3.88;;
78402;SDS011;67687;43.508;1.504;2023-10-09T07:45:52;7.47;;;4.07;;
78402;SDS011;67687;43.508;1.504;2023-10-09T07:48:35;8.30;;;4.28;;
78402;SDS011;67687;43.508;1.504;2023-10-09T07:51:13;11.07;;;4.10;;
78402;SDS011;67687;43.508;1.504;2023-10-09T07:53:39;10.33;;;4.53;;
78402;SDS011;67687;43.508;1.504;2023-10-09T07:56:09;10.35;;;4.43;;
78402;SDS011;67687;43.508;1.504;2023-10-09T07:58:40;12.13;;;4.35;;
78402;SDS011;67687;43.508;1.504;2023-10-09T08:01:12;8.17;;;3.93;;
78402;SDS011;67687;43.508;1.504;2023-10-09T08:03:47;9.95;;;4.40;;
78402;SDS011;67687;43.508;1.504;2023-10-09T08:06:22;11.40;;;5.47;;
78402;SDS011;67687;43.508;1.504;2023-10-09T08:09:08;14.45;;;6.30;;
78402;SDS011;67687;43.508;1.504;2023-10-09T08:11:45;13.45;;;6.40;;
78402;SDS011;67687;43.508;1.504;2023-10-09T08:14:27;12.63;;;7.13;;
78402;SDS011;67687;43.508;1.504;2023-10-09T08:17:13;13.95;;;7.30;;
78402;SDS011;67687;43.508;1.504;2023-10-09T08:19:40;14.73;;;6.93;;
78402;SDS011;67687;43.508;1.504;2023-10-09T08:22:20;13.85;;;6.80;;
78402;SDS011;67687;43.508;1.504;2023-10-09T08:25:04;15.23;;;6.80;;
78402;SDS011;67687;43.508;1.504;2023-10-09T08:27:32;15.50;;;7.37;;
78402;SDS011;67687;43.508;1.504;2023-10-09T08:30:21;15.82;;;7.35;;
78402;SDS011;67687;43.508;1.504;2023-10-09T08:33:14;15.88;;;6.60;;
78402;SDS011;67687;43.508;1.504;2023-10-09T08:36:06;15.80;;;6.60;;
78402;SDS011;67687;43.508;1.504;2023-10-09T08:38:33;13.15;;;7.15;;
78402;SDS011;67687;43.508;1.504;2023-10-09T08:41:06;15.97;;;7.63;;
78402;SDS011;67687;43.508;1.504;2023-10-09T08:43:42;19.25;;;8.82;;
78402;SDS011;67687;43.508;1.504;2023-10-09T08:46:13;18.45;;;9.65;;
78402;SDS011;67687;43.508;1.504;2023-10-09T08:48:43;20.38;;;11.23;;
78402;SDS011;67687;43.508;1.504;2023-10-09T08:51:10;20.77;;;10.70;;
78402;SDS011;67687;43.508;1.504;2023-10-09T08:53:39;19.47;;;9.90;;
78402;SDS011;67687;43.508;1.504;2023-10-09T08:56:08;17.33;;;9.38;;
78402;SDS011;67687;43.508;1.504;2023-10-09T08:58:35;21.00;;;11.07;;
78402;SDS011;67687;43.508;1.504;2023-10-09T09:01:03;19.92;;;10.10;;
78402;SDS011;67687;43.508;1.504;2023-10-09T09:03:38;22.20;;;10.88;;
78402;SDS011;67687;43.508;1.504;2023-10-09T09:06:06;25.43;;;14.10;;
78402;SDS011;67687;43.508;1.504;2023-10-09T09:08:32;24.73;;;12.30;;
78402;SDS011;67687;43.508;1.504;2023-10-09T09:11:02;25.55;;;13.18;;
78402;SDS011;67687;43.508;1.504;2023-10-09T09:13:37;22.65;;;12.20;;
78402;SDS011;67687;43.508;1.504;2023-10-09T09:16:07;18.55;;;9.13;;
78402;SDS011;67687;43.508;1.504;2023-10-09T09:18:44;14.90;;;8.53;;
78402;SDS011;67687;43.508;1.504;2023-10-09T09:21:17;19.02;;;9.82;;
78402;SDS011;67687;43.508;1.504;2023-10-09T09:23:53;22.50;;;10.55;;
78402;SDS011;67687;43.508;1.504;2023-10-09T09:26:24;18.40;;;10.15;;
78402;SDS011;67687;43.508;1.504;2023-10-09T09:29:01;18.00;;;8.65;;
78402;SDS011;67687;43.508;1.504;2023-10-09T09:31:30;19.03;;;9.87;;
78402;SDS011;67687;43.508;1.504;2023-10-09T09:34:04;19.50;;;9.20;;
78402;SDS011;67687;43.508;1.504;2023-10-09T09:36:43;18.85;;;8.82;;
78402;SDS011;67687;43.508;1.504;2023-10-09T09:39:18;18.67;;;8.50;;
78402;SDS011;67687;43.508;1.504;2023-10-09T09:41:45;14.48;;;7.63;;
78402;SDS011;67687;43.508;1.504;2023-10-09T09:44:12;17.17;;;7.50;;
78402;SDS011;67687;43.508;1.504;2023-10-09T09:46:43;14.80;;;7.70;;
78402;SDS011;67687;43.508;1.504;2023-10-09T09:49:11;13.38;;;6.80;;
78402;SDS011;67687;43.508;1.504;2023-10-09T09:51:41;13.45;;;7.50;;
78402;SDS011;67687;43.508;1.504;2023-10-09T09:54:11;12.25;;;6.20;;
78402;SDS011;67687;43.508;1.504;2023-10-09T09:56:40;15.70;;;6.70;;
78402;SDS011;67687;43.508;1.504;2023-10-09T09:59:10;10.43;;;5.75;;
78402;SDS011;67687;43.508;1.504;2023-10-09T10:01:46;12.55;;;7.60;;
78402;SDS011;67687;43.508;1.504;2023-10-09T10:04:23;12.90;;;6.60;;
78402;SDS011;67687;43.508;1.504;2023-10-09T10:06:50;10.80;;;5.45;;
78402;SDS011;67687;43.508;1.504;2023-10-09T10:09:33;10.43;;;5.40;;
78402;SDS011;67687;43.508;1.504;2023-10-09T10:12:03;11.00;;;5.57;;
78402;SDS011;67687;43.508;1.504;2023-10-09T10:17:17;9.65;;;4.85;;
78402;SDS011;67687;43.508;1.504;2023-10-09T10:23:15;9.43;;;4.70;;
78402;SDS011;67687;43.508;1.504;2023-10-09T10:25:44;7.82;;;4.40;;
78402;SDS011;67687;43.508;1.504;2023-10-09T10:28:20;9.27;;;4.88;;
78402;SDS011;67687;43.508;1.504;2023-10-09T10:31:16;9.63;;;5.47;;
78402;SDS011;67687;43.508;1.504;2023-10-09T10:36:31;10.48;;;4.68;;
78402;SDS011;67687;43.508;1.504;2023-10-09T10:38:59;7.73;;;4.00;;
78402;SDS011;67687;43.508;1.504;2023-10-09T10:41:33;8.00;;;3.90;;
78402;SDS011;67687;43.508;1.504;2023-10-09T10:44:02;8.65;;;4.38;;
78402;SDS011;67687;43.508;1.504;2023-10-09T10:47:00;8.32;;;3.90;;
78402;SDS011;67687;43.508;1.504;2023-10-09T10:49:26;8.77;;;4.28;;
78402;SDS011;67687;43.508;1.504;2023-10-09T10:52:01;8.97;;;5.40;;
78402;SDS011;67687;43.508;1.504;2023-10-09T10:54:40;9.45;;;4.03;;
78402;SDS011;67687;43.508;1.504;2023-10-09T10:57:35;6.32;;;3.72;;
78402;SDS011;67687;43.508;1.504;2023-10-09T11:00:18;7.57;;;3.47;;
78402;SDS011;67687;43.508;1.504;2023-10-09T11:03:00;7.32;;;3.53;;
78402;SDS011;67687;43.508;1.504;2023-10-09T11:05:39;5.63;;;3.60;;
78402;SDS011;67687;43.508;1.504;2023-10-09T11:08:08;6.75;;;3.70;;
78402;SDS011;67687;43.508;1.504;2023-10-09T11:10:35;7.38;;;3.25;;
78402;SDS011;67687;43.508;1.504;2023-10-09T11:13:20;6.53;;;3.60;;
78402;SDS011;67687;43.508;1.504;2023-10-09T11:15:58;7.43;;;3.30;;
78402;SDS011;67687;43.508;1.504;2023-10-09T11:18:41;7.70;;;3.80;;
78402;SDS011;67687;43.508;1.504;2023-10-09T11:21:12;6.40;;;3.47;;
78402;SDS011;67687;43.508;1.504;2023-10-09T11:24:00;7.80;;;3.38;;
78402;SDS011;67687;43.508;1.504;2023-10-09T11:26:49;6.82;;;3.72;;
78402;SDS011;67687;43.508;1.504;2023-10-09T11:29:20;7.60;;;3.63;;
78402;SDS011;67687;43.508;1.504;2023-10-09T11:31:57;7.07;;;3.60;;
78402;SDS011;67687;43.508;1.504;2023-10-09T11:34:26;6.32;;;3.60;;
78402;SDS011;67687;43.508;1.504;2023-10-09T11:36:59;6.95;;;3.50;;
78402;SDS011;67687;43.508;1.504;2023-10-09T11:39:26;6.65;;;3.60;;
78402;SDS011;67687;43.508;1.504;2023-10-09T11:42:06;6.28;;;3.78;;
78402;SDS011;67687;43.508;1.504;2023-10-09T11:44:37;8.10;;;4.17;;
78402;SDS011;67687;43.508;1.504;2023-10-09T11:47:04;8.35;;;4.13;;
78402;SDS011;67687;43.508;1.504;2023-10-09T11:49:49;8.00;;;4.10;;
78402;SDS011;67687;43.508;1.504;2023-10-09T11:52:23;7.78;;;4.30;;
78402;SDS011;67687;43.508;1.504;2023-10-09T11:55:01;6.72;;;4.05;;
78402;SDS011;67687;43.508;1.504;2023-10-09T11:57:28;8.43;;;4.40;;
78402;SDS011;67687;43.508;1.504;2023-10-09T11:59:58;8.30;;;4.28;;
78402;SDS011;67687;43.508;1.504;2023-10-09T12:02:25;8.50;;;4.45;;
78402;SDS011;67687;43.508;1.504;2023-10-09T12:04:53;7.97;;;4.05;;
78402;SDS011;67687;43.508;1.504;2023-10-09T12:07:22;8.23;;;4.43;;
78402;SDS011;67687;43.508;1.504;2023-10-09T12:09:50;8.23;;;4.37;;
78402;SDS011;67687;43.508;1.504;2023-10-09T12:12:21;7.78;;;4.50;;
78402;SDS011;67687;43.508;1.504;2023-10-09T12:14:51;7.05;;;3.90;;
78402;SDS011;67687;43.508;1.504;2023-10-09T12:17:18;8.02;;;4.03;;
78402;SDS011;67687;43.508;1.504;2023-10-09T12:19:46;7.25;;;4.10;;
78402;SDS011;67687;43.508;1.504;2023-10-09T12:22:14;8.23;;;4.20;;
78402;SDS011;67687;43.508;1.504;2023-10-09T12:24:42;8.85;;;3.95;;
78402;SDS011;67687;43.508;1.504;2023-10-09T12:27:10;8.23;;;3.90;;
78402;SDS011;67687;43.508;1.504;2023-10-09T12:29:37;7.07;;;4.05;;
78402;SDS011;67687;43.508;1.504;2023-10-09T12:32:09;10.30;;;4.60;;
78402;SDS011;67687;43.508;1.504;2023-10-09T12:34:36;9.90;;;4.30;;
78402;SDS011;67687;43.508;1.504;2023-10-09T12:37:03;9.35;;;4.18;;
78402;SDS011;67687;43.508;1.504;2023-10-09T12:39:32;7.88;;;4.30;;
78402;SDS011;67687;43.508;1.504;2023-10-09T12:41:59;8.43;;;4.20;;
78402;SDS011;67687;43.508;1.504;2023-10-09T12:44:31;8.82;;;4.47;;
78402;SDS011;67687;43.508;1.504;2023-10-09T12:46:58;7.10;;;3.90;;
78402;SDS011;67687;43.508;1.504;2023-10-09T12:49:29;7.75;;;3.75;;
78402;SDS011;67687;43.508;1.504;2023-10-09T12:51:55;8.57;;;4.00;;
78402;SDS011;67687;43.508;1.504;2023-10-09T12:54:22;7.55;;;3.90;;
78402;SDS011;67687;43.508;1.504;2023-10-09T12:56:53;8.23;;;3.80;;
78402;SDS011;67687;43.508;1.504;2023-10-09T12:59:20;8.73;;;4.03;;
78402;SDS011;67687;43.508;1.504;2023-10-09T13:01:46;6.30;;;3.70;;
78402;SDS011;67687;43.508;1.504;2023-10-09T13:04:17;8.57;;;3.80;;
78402;SDS011;67687;43.508;1.504;2023-10-09T13:06:47;7.20;;;3.90;;
78402;SDS011;67687;43.508;1.504;2023-10-09T13:09:17;8.57;;;3.97;;
78402;SDS011;67687;43.508;1.504;2023-10-09T13:11:49;6.87;;;3.77;;
78402;SDS011;67687;43.508;1.504;2023-10-09T13:14:17;7.15;;;3.80;;
78402;SDS011;67687;43.508;1.504;2023-10-09T13:16:47;7.97;;;3.63;;
78402;SDS011;67687;43.508;1.504;2023-10-09T13:19:15;6.53;;;4.05;;
78402;SDS011;67687;43.508;1.504;2023-10-09T13:21:42;6.75;;;3.60;;
78402;SDS011;67687;43.508;1.504;2023-10-09T13:24:09;7.17;;;4.00;;
78402;SDS011;67687;43.508;1.504;2023-10-09T13:26:38;6.90;;;3.88;;
78402;SDS011;67687;43.508;1.504;2023-10-09T13:29:06;10.00;;;4.10;;
78402;SDS011;67687;43.508;1.504;2023-10-09T13:31:36;7.38;;;4.15;;
78402;SDS011;67687;43.508;1.504;2023-10-09T13:34:03;7.32;;;3.83;;
78402;SDS011;67687;43.508;1.504;2023-10-09T13:36:31;7.70;;;3.77;;
78402;SDS011;67687;43.508;1.504;2023-10-09T13:38:59;7.72;;;3.97;;
78402;SDS011;67687;43.508;1.504;2023-10-09T13:41:47;5.97;;;3.75;;
78402;SDS011;67687;43.508;1.504;2023-10-09T13:44:13;7.15;;;4.10;;
78402;SDS011;67687;43.508;1.504;2023-10-09T13:46:41;6.63;;;3.88;;
78402;SDS011;67687;43.508;1.504;2023-10-09T13:49:08;7.57;;;4.10;;
78402;SDS011;67687;43.508;1.504;2023-10-09T13:51:37;6.53;;;4.00;;
78402;SDS011;67687;43.508;1.504;2023-10-09T13:54:08;7.35;;;3.70;;
78402;SDS011;67687;43.508;1.504;2023-10-09T13:56:35;5.93;;;3.47;;
78402;SDS011;67687;43.508;1.504;2023-10-09T13:59:04;13.40;;;4.68;;
78402;SDS011;67687;43.508;1.504;2023-10-09T14:01:35;8.00;;;3.97;;
78402;SDS011;67687;43.508;1.504;2023-10-09T14:04:05;16.92;;;5.82;;
78402;SDS011;67687;43.508;1.504;2023-10-09T14:06:32;10.25;;;3.90;;
78402;SDS011;67687;43.508;1.504;2023-10-09T14:08:59;9.18;;;3.90;;
78402;SDS011;67687;43.508;1.504;2023-10-09T14:11:28;6.53;;;3.50;;
78402;SDS011;67687;43.508;1.504;2023-10-09T14:13:55;6.23;;;3.70;;
78402;SDS011;67687;43.508;1.504;2023-10-09T14:16:21;6.72;;;3.42;;
78402;SDS011;67687;43.508;1.504;2023-10-09T14:18:53;6.88;;;3.60;;
78402;SDS011;67687;43.508;1.504;2023-10-09T14:21:23;7.22;;;3.63;;
78402;SDS011;67687;43.508;1.504;2023-10-09T14:23:51;8.50;;;4.22;;
78402;SDS011;67687;43.508;1.504;2023-10-09T14:26:20;8.73;;;3.83;;
78402;SDS011;67687;43.508;1.504;2023-10-09T14:28:47;7.03;;;3.70;;
78402;SDS011;67687;43.508;1.504;2023-10-09T14:31:13;8.52;;;3.72;;
78402;SDS011;67687;43.508;1.504;2023-10-09T14:33:47;7.03;;;3.60;;
78402;SDS011;67687;43.508;1.504;2023-10-09T14:36:16;7.00;;;3.58;;
78402;SDS011;67687;43.508;1.504;2023-10-09T14:38:44;7.70;;;3.90;;
78402;SDS011;67687;43.508;1.504;2023-10-09T14:41:12;5.28;;;3.33;;
78402;SDS011;67687;43.508;1.504;2023-10-09T14:43:38;6.03;;;3.47;;
78402;SDS011;67687;43.508;1.504;2023-10-09T14:46:06;7.43;;;3.80;;
78402;SDS011;67687;43.508;1.504;2023-10-09T14:48:35;6.43;;;3.63;;
78402;SDS011;67687;43.508;1.504;2023-10-09T14:51:02;6.87;;;3.50;;
78402;SDS011;67687;43.508;1.504;2023-10-09T14:53:31;6.22;;;3.33;;
78402;SDS011;67687;43.508;1.504;2023-10-09T14:56:00;5.57;;;3.45;;
78402;SDS011;67687;43.508;1.504;2023-10-09T14:58:28;6.30;;;3.20;;
78402;SDS011;67687;43.508;1.504;2023-10-09T15:00:57;7.38;;;3.80;;
78402;SDS011;67687;43.508;1.504;2023-10-09T15:03:24;8.27;;;3.90;;
78402;SDS011;67687;43.508;1.504;2023-10-09T15:05:53;7.85;;;3.55;;
78402;SDS011;67687;43.508;1.504;2023-10-09T15:08:19;10.27;;;3.80;;
78402;SDS011;67687;43.508;1.504;2023-10-09T15:10:46;7.57;;;3.30;;
78402;SDS011;67687;43.508;1.504;2023-10-09T15:13:15;7.82;;;3.70;;
78402;SDS011;67687;43.508;1.504;2023-10-09T15:15:42;9.27;;;3.43;;
78402;SDS011;67687;43.508;1.504;2023-10-09T15:18:09;7.47;;;3.38;;
78402;SDS011;67687;43.508;1.504;2023-10-09T15:20:38;5.88;;;3.50;;
78402;SDS011;67687;43.508;1.504;2023-10-09T15:23:06;6.22;;;3.55;;
78402;SDS011;67687;43.508;1.504;2023-10-09T15:25:33;7.97;;;3.58;;
78402;SDS011;67687;43.508;1.504;2023-10-09T15:28:00;7.40;;;3.83;;